Latest Coastal Weather Observations for Port Hedland

IDW60701

Issued at 4:43 pm WST Sunday 19 November 2017 (issued every 10 minutes, with the page automatically refreshed every 10 minutes)

About coastal observations | Map of coastal stations | Coastal observations for WA | Marine services | Other Formats
Station Details ID: 004032 Name: PORT HEDLAND AIRPORT Lat: -20.37 Lon: 118.63 Height: 6.4 m
Data from the previous 72 hours. | See also: Recent months at Port Hedland
Date/Time
WST
Temp
°C
Wind Pressure Rain since
9am
mm
Weather Cloud Vis
km
Sea
Height
m
Swell
Dir  Spd
kts
Gust
kts
hPa Trend Height
m
Period
s
Dir
19/04:30pm 30.7 NW 15 18 1006.5 - 0.0 - Clear 10 - - - -
19/04:00pm 30.9 NW 16 19 1006.5 - 0.0 - - 10 - - - -
19/03:30pm 32.3 NW 15 17 1006.6 - 0.0 - - 10 - - - -
19/03:00pm 32.5 NW 14 18 1006.6 - 0.0 - - 10 - - - -
19/02:30pm 32.4 NW 14 18 1006.8 - 0.0 - - 10 - - - -
19/02:00pm 33.0 NW 14 18 1007.0 - 0.0 - - 10 - - - -
19/01:30pm 32.2 NW 14 18 1007.1 - 0.0 - - 10 - - - -
19/01:00pm 33.6 NW 14 18 1007.6 - 0.0 - - 10 - - - -
19/12:30pm 33.1 NW 13 16 1007.9 - 0.0 - - 10 - - - -
19/12:00pm 33.1 NNW 12 16 1008.1 - 0.0 - - 10 - - - -
19/11:30am 33.1 NNW 11 14 1008.5 - 0.0 - - 10 - - - -
19/11:00am 32.4 NNW 11 14 1008.8 - 0.0 - - 10 - - - -
19/10:30am 33.1 NNW 9 13 1008.9 - 0.0 - - 10 - - - -
19/10:00am 32.5 NNW 8 11 1009.1 - 0.0 - - 10 - - - -
19/09:30am 31.9 NNW 8 11 1009.3 - 0.0 - - 10 - - - -
19/09:00am 31.4 NW 7 12 1009.4 - 0.0 - - 10 - - - -
19/08:30am 30.5 NW 7 9 1009.4 - 0.0 - - 10 - - - -
19/08:00am 29.8 W 7 11 1009.4 - 0.0 - - 10 - - - -
19/07:30am 28.4 W 8 11 1009.3 - 0.0 - - 10 - - - -
19/07:00am 26.8 W 9 11 1009.2 - 0.0 - - 10 - - - -
19/06:30am 25.5 W 7 9 1008.9 - 0.0 - - 10 - - - -
19/06:00am 23.4 W 4 6 1008.6 - 0.0 - - 10 - - - -
19/05:30am 22.1 WSW 6 6 1008.4 - 0.0 - - 10 - - - -
19/05:00am 22.5 W 7 8 1008.2 - 0.0 - - 10 - - - -
19/04:30am 23.0 WSW 8 10 1007.9 - 0.0 - - 10 - - - -
19/04:00am 23.7 W 9 12 1007.6 - 0.0 - - 10 - - - -
19/03:30am 24.0 W 9 13 1007.5 - 0.0 - - 10 - - - -
19/03:00am 24.2 W 9 11 1007.6 - 0.0 - - 10 - - - -
19/02:30am 24.4 W 9 11 1007.8 - 0.0 - - 10 - - - -
19/02:00am 24.4 W 9 11 1008.0 - 0.0 - - 10 - - - -
19/01:30am 24.5 W 8 12 1008.4 - 0.0 - - 10 - - - -
19/01:00am 24.7 W 10 12 1008.6 - 0.0 - - 10 - - - -
19/12:30am 25.0 W 8 11 1009.1 - 0.0 - - 10 - - - -
19/12:00am 25.2 W 9 13 1009.0 - 0.0 - - 10 - - - -
 
Date/Time
WST
Temp
°C
Wind Pressure Rain since
9am
mm
Weather Cloud Vis
km
Sea
Height
m
Swell
Dir  Spd
kts
Gust
kts
hPa Trend Height
m
Period
s
Dir
18/11:30pm 25.2 W 10 12 1009.2 - 0.0 - - 10 - - - -
18/11:00pm 25.4 W 9 12 1009.3 - 0.0 - - 10 - - - -
18/10:30pm 25.5 W 8 13 1009.4 - 0.0 - - 10 - - - -
18/10:00pm 25.6 W 10 13 1009.3 - 0.0 - - 10 - - - -
18/09:30pm 25.6 W 10 12 1009.3 - 0.0 - - 10 - - - -
18/09:00pm 25.6 W 10 14 1009.0 - 0.0 - - 10 - - - -
18/08:30pm 25.6 W 9 11 1008.8 - 0.0 - - 10 - - - -
18/08:00pm 25.9 W 13 16 1008.3 - 0.0 - - 10 - - - -
18/07:30pm 26.0 W 12 17 1008.1 - 0.0 - - 10 - - - -
18/07:00pm 26.4 W 14 19 1007.6 - 0.0 - - 10 - - - -
18/06:30pm 26.8 WNW 17 22 1007.2 - 0.0 - - 10 - - - -
18/06:00pm 27.5 WNW 18 24 1006.7 - 0.0 - - 10 - - - -
18/05:30pm 28.5 WNW 19 25 1006.6 - 0.0 - - 10 - - - -
18/05:00pm 29.9 WNW 18 23 1006.4 - 0.0 - - 10 - - - -
18/04:30pm 30.3 WNW 18 23 1006.5 - 0.0 - - 10 - - - -
18/04:00pm 31.0 WNW 18 22 1006.5 - 0.0 - - 10 - - - -
18/03:30pm 31.1 NW 17 21 1006.8 - 0.0 - - 10 - - - -
18/03:00pm 31.7 NW 18 22 1006.9 - 0.0 - - 10 - - - -
18/02:30pm 32.1 NW 18 23 1007.3 - 0.0 - - 10 - - - -
18/02:00pm 32.9 NW 18 22 1007.3 - 0.0 - - 10 - - - -
18/01:30pm 33.1 NW 19 23 1007.3 - 0.0 - - 10 - - - -
18/01:00pm 34.2 NW 18 22 1007.4 - 0.0 - - 10 - - - -
18/12:30pm 33.1 NW 17 22 1007.6 - 0.0 - - 10 - - - -
18/12:00pm 32.9 NW 17 22 1007.9 - 0.0 - - 10 - - - -
18/11:30am 35.2 W 11 18 1008.4 - 0.0 - - 10 - - - -
18/11:00am 34.1 W 12 20 1008.8 - 0.0 - - 10 - - - -
18/10:30am 33.0 WSW 13 20 1009.1 - 0.0 - - 10 - - - -
18/10:00am 32.1 WSW 12 19 1009.3 - 0.0 - - 10 - - - -
18/09:30am 31.1 WSW 11 17 1009.6 - 0.0 - - 10 - - - -
18/09:00am 30.6 WSW 13 19 1009.8 - 0.0 - - 10 - - - -
18/08:30am 29.7 WSW 12 17 1009.9 - 0.0 - - 10 - - - -
18/08:00am 28.4 WSW 15 19 1009.8 - 0.0 - - 10 - - - -
18/07:30am 27.6 WSW 15 20 1009.9 - 0.0 - - 10 - - - -
18/07:00am 26.1 WSW 15 23 1009.8 - 0.0 - - 10 - - - -
18/06:58am 26.0 WSW 15 23 1009.8 - 0.0 - - 10 - - - -
18/06:30am 24.6 SW 10 13 1009.6 - 0.0 - - 10 - - - -
18/06:00am 22.8 WSW 7 9 1009.3 - 0.0 - - 10 - - - -
18/05:30am 21.8 WSW 6 8 1009.0 - 0.0 - - 10 - - - -
18/05:00am 21.6 WSW 6 7 1008.6 - 0.0 - - 10 - - - -
18/04:30am 22.2 WSW 6 7 1008.5 - 0.0 - - 10 - - - -
18/04:00am 22.6 WSW 8 9 1008.2 - 0.0 - - 10 - - - -
18/03:30am 23.0 WSW 8 10 1008.2 - 0.0 - - 10 - - - -
18/03:00am 23.6 W 10 12 1008.3 - 0.0 - - 10 - - - -
18/02:30am 23.8 W 9 11 1008.6 - 0.0 - - 10 - - - -
18/02:00am 24.1 W 10 13 1008.5 - 0.0 - - 10 - - - -
18/01:30am 24.3 W 12 15 1008.5 - 0.0 - - 10 - - - -
18/01:00am 24.4 W 11 15 1008.8 - 0.0 - - 10 - - - -
18/12:30am 24.8 W 11 14 1009.2 - 0.0 - - 10 - - - -
18/12:00am 24.9 W 10 13 1009.4 - 0.0 - - 10 - - - -
 
Date/Time
WST
Temp
°C
Wind Pressure Rain since
9am
mm
Weather Cloud Vis
km
Sea
Height
m
Swell
Dir  Spd
kts
Gust
kts
hPa Trend Height
m
Period
s
Dir
17/11:30pm 25.1 W 10 13 1009.8 - 0.0 - - 10 - - - -
17/11:00pm 25.1 WNW 9 12 1010.1 - 0.0 - - 10 - - - -
17/10:30pm 25.1 WNW 9 11 1009.9 - 0.0 - - 10 - - - -
17/10:00pm 25.2 WNW 9 11 1009.8 - 0.0 - - 10 - - - -
17/09:30pm 25.1 WNW 9 11 1009.5 - 0.0 - - 10 - - - -
17/09:00pm 25.3 NW 10 13 1009.1 - 0.0 - - 10 - - - -
17/08:30pm 25.4 NW 9 12 1009.0 - 0.0 - - 10 - - - -
17/08:00pm 25.5 NW 9 12 1008.9 - 0.0 - - 10 - - - -
17/07:30pm 25.6 NW 10 13 1008.8 - 0.0 - - 10 - - - -
17/07:00pm 25.8 NW 11 14 1008.4 - 0.0 - - 10 - - - -
17/06:30pm 26.2 NW 11 15 1008.2 - 0.0 - - 10 - - - -
17/06:00pm 26.9 NW 12 15 1007.8 - 0.0 - - 10 - - - -
17/05:30pm 27.8 NW 14 18 1007.6 - 0.0 - - 10 - - - -
17/05:00pm 28.2 NW 14 19 1007.5 - 0.0 - - 10 - - - -
17/04:30pm 28.8 NNW 15 19 1007.3 - 0.0 - - 10 - - - -
17/04:00pm 29.4 NNW 15 19 1007.5 - 0.0 - - 10 - - - -
17/03:30pm 29.7 NW 14 20 1007.5 - 0.0 - - 10 - - - -
17/03:00pm 30.7 NW 17 22 1007.3 - 0.0 - - 10 - - - -
17/02:30pm 31.0 NW 18 23 1007.8 - 0.0 - - 10 - - - -
17/02:00pm 31.3 NW 17 23 1008.0 - 0.0 - - 10 - - - -
17/01:30pm 31.2 NW 19 23 1008.4 - 0.0 - - 10 - - - -
17/01:00pm 31.8 NNW 17 21 1008.7 - 0.0 - - 10 - - - -
17/12:30pm 31.8 NW 19 23 1008.8 - 0.0 - - 10 - - - -
17/12:00pm 32.3 NW 17 21 1008.9 - 0.0 - - 10 - - - -
17/11:50am 31.8 NNW 16 25 1009.5 - 0.0 - - 10 - - - -
17/11:30am 32.6 WNW 20 26 1008.4 - 0.0 - - 10 - - - -
17/11:00am 31.8 WNW 20 26 1008.8 - 0.0 - - 10 - - - -
17/10:30am 31.8 NW 19 23 1009.1 - 0.0 - - 10 - - - -
17/10:00am 32.4 W 15 22 1009.2 - 0.0 - - 10 - - - -
17/09:30am 32.3 WSW 16 22 1009.4 - 0.0 - - 10 - - - -
17/09:00am 30.5 WSW 13 20 1009.6 - 0.0 - - 10 - - - -
17/08:30am 30.0 W 14 19 1009.9 - 0.0 - - 10 - - - -
17/08:00am 29.3 WSW 14 17 1009.9 - 0.0 - - 10 - - - -
17/07:30am 27.8 WSW 13 16 1009.9 - 0.0 - - 10 - - - -
17/07:00am 26.7 WSW 13 17 1009.9 - 0.0 - - 10 - - - -
17/06:30am 25.3 WSW 11 14 1009.8 - 0.0 - - 10 - - - -
17/06:00am 23.9 WSW 9 11 1009.4 - 0.0 - - 10 - - - -
17/05:30am 22.7 WSW 7 8 1009.3 - 0.0 - - 10 - - - -
17/05:00am 22.6 WSW 7 8 1009.1 - 0.0 - - 10 - - - -
17/04:30am 22.6 WSW 8 9 1008.7 - 0.0 - - 10 - - - -
17/04:00am 22.7 WSW 8 9 1008.6 - 0.0 - - 10 - - - -
17/03:30am 22.7 WSW 7 9 1008.5 - 0.0 - - 10 - - - -
17/03:00am 23.0 WSW 7 9 1008.4 - 0.0 - - 10 - - - -
17/02:30am 23.4 WSW 8 10 1008.7 - 0.0 - - 10 - - - -
17/02:00am 24.3 W 10 12 1008.8 - 0.0 - - 10 - - - -
17/01:30am 24.5 W 11 14 1009.0 - 0.0 - - 10 - - - -
17/01:00am 24.5 W 10 13 1009.2 - 0.0 - - 10 - - - -
17/12:30am 24.7 W 10 12 1009.4 - 0.0 - - 10 - - - -
17/12:00am 24.7 W 10 12 1009.5 - 0.0 - - 10 - - - -
 
Date/Time
WST
Temp
°C
Wind Pressure Rain since
9am
mm
Weather Cloud Vis
km
Sea
Height
m
Swell
Dir  Spd
kts
Gust
kts
hPa Trend Height
m
Period
s
Dir
16/11:30pm 24.9 W 9 12 1009.7 - 0.0 - - 10 - - - -
16/11:00pm 24.9 W 8 10 1009.9 - 0.0 - - 10 - - - -
16/10:30pm 25.0 W 8 10 1010.2 - 0.0 - - 10 - - - -
16/10:00pm 25.2 W 9 10 1010.0 - 0.0 - - 10 - - - -
16/09:30pm 25.4 W 9 13 1009.9 - 0.0 - - 10 - - - -
16/09:00pm 25.6 W 9 12 1009.4 - 0.0 - - 10 - - - -
16/08:30pm 25.6 W 9 11 1009.2 - 0.0 - - 10 - - - -
16/08:00pm 25.9 W 10 13 1009.0 - 0.0 - - 10 - - - -
16/07:30pm 26.0 WNW 11 16 1008.5 - 0.0 - - 10 - - - -
16/07:00pm 26.1 WNW 13 16 1008.2 - 0.0 - - 10 - - - -
16/06:30pm 26.4 WNW 14 17 1007.9 - 0.0 - - 10 - - - -
16/06:00pm 27.2 WNW 16 19 1007.4 - 0.0 - - 10 - - - -
16/05:30pm 28.4 WNW 14 17 1007.4 - 0.0 - - 10 - - - -
16/05:00pm 29.3 WNW 14 17 1007.3 - 0.0 - - 10 - - - -

Other Formats:

Comma delimited format used in spreadsheet applications
http://www.bom.gov.au/fwo/IDW60701/IDW60701.94312.axf

JavaScript Object Notation format (JSON) in row-major order
http://www.bom.gov.au/fwo/IDW60701/IDW60701.94312.json